sensor_id;sensor_type;location;lat;lon;timestamp;pressure;altitude;pressure_sealevel;temperature;humidity
60832;BME280;46665;51.558;-0.448;2023-03-14T00:00:13;98131.28;;;8.74;100.00
60832;BME280;46665;51.558;-0.448;2023-03-14T00:02:58;98133.19;;;8.74;100.00
60832;BME280;46665;51.558;-0.448;2023-03-14T00:05:41;98134.28;;;8.73;100.00
60832;BME280;46665;51.558;-0.448;2023-03-14T00:08:25;98130.81;;;8.72;100.00
60832;BME280;46665;51.558;-0.448;2023-03-14T00:11:16;98128.41;;;8.71;100.00
60832;BME280;46665;51.558;-0.448;2023-03-14T00:14:00;98141.16;;;8.70;100.00
60832;BME280;46665;51.558;-0.448;2023-03-14T00:16:47;98146.59;;;8.70;100.00
60832;BME280;46665;51.558;-0.448;2023-03-14T00:19:31;98138.16;;;8.72;100.00
60832;BME280;46665;51.558;-0.448;2023-03-14T00:22:15;98136.09;;;8.68;100.00
60832;BME280;46665;51.558;-0.448;2023-03-14T00:24:59;98133.22;;;8.65;100.00
60832;BME280;46665;51.558;-0.448;2023-03-14T00:27:43;98132.13;;;8.66;100.00
60832;BME280;46665;51.558;-0.448;2023-03-14T00:30:27;98143.59;;;8.63;100.00
60832;BME280;46665;51.558;-0.448;2023-03-14T00:33:11;98144.28;;;8.60;100.00
60832;BME280;46665;51.558;-0.448;2023-03-14T00:35:57;98153.66;;;8.62;100.00
60832;BME280;46665;51.558;-0.448;2023-03-14T00:38:43;98151.94;;;8.58;100.00
60832;BME280;46665;51.558;-0.448;2023-03-14T00:41:27;98167.22;;;8.62;100.00
60832;BME280;46665;51.558;-0.448;2023-03-14T00:44:11;98235.00;;;8.62;100.00
60832;BME280;46665;51.558;-0.448;2023-03-14T00:46:54;98278.19;;;8.12;100.00
60832;BME280;46665;51.558;-0.448;2023-03-14T00:49:38;98262.03;;;7.42;100.00
60832;BME280;46665;51.558;-0.448;2023-03-14T00:52:22;98279.16;;;7.11;100.00
60832;BME280;46665;51.558;-0.448;2023-03-14T00:55:06;98290.25;;;6.92;100.00
60832;BME280;46665;51.558;-0.448;2023-03-14T00:57:51;98285.75;;;6.70;100.00
60832;BME280;46665;51.558;-0.448;2023-03-14T01:00:35;98294.91;;;6.52;100.00
60832;BME280;46665;51.558;-0.448;2023-03-14T01:03:20;98311.53;;;6.45;100.00
60832;BME280;46665;51.558;-0.448;2023-03-14T01:06:14;98322.44;;;6.32;100.00
60832;BME280;46665;51.558;-0.448;2023-03-14T01:08:59;98326.03;;;6.18;100.00
60832;BME280;46665;51.558;-0.448;2023-03-14T01:11:43;98345.06;;;6.13;100.00
60832;BME280;46665;51.558;-0.448;2023-03-14T01:14:29;98346.78;;;6.09;100.00
60832;BME280;46665;51.558;-0.448;2023-03-14T01:17:13;98343.81;;;5.97;100.00
60832;BME280;46665;51.558;-0.448;2023-03-14T01:19:57;98345.16;;;5.85;100.00
60832;BME280;46665;51.558;-0.448;2023-03-14T01:22:42;98363.53;;;5.83;100.00
60832;BME280;46665;51.558;-0.448;2023-03-14T01:25:27;98363.72;;;5.87;100.00
60832;BME280;46665;51.558;-0.448;2023-03-14T01:28:10;98383.16;;;5.75;100.00
60832;BME280;46665;51.558;-0.448;2023-03-14T01:30:54;98393.25;;;5.70;100.00
60832;BME280;46665;51.558;-0.448;2023-03-14T01:33:39;98407.06;;;5.68;100.00
60832;BME280;46665;51.558;-0.448;2023-03-14T01:36:24;98409.38;;;5.61;100.00
60832;BME280;46665;51.558;-0.448;2023-03-14T01:39:08;98417.56;;;5.56;100.00
60832;BME280;46665;51.558;-0.448;2023-03-14T01:41:52;98433.47;;;5.57;100.00
60832;BME280;46665;51.558;-0.448;2023-03-14T01:44:59;98442.66;;;5.56;100.00
60832;BME280;46665;51.558;-0.448;2023-03-14T01:47:43;98441.84;;;5.56;100.00
60832;BME280;46665;51.558;-0.448;2023-03-14T01:50:27;98453.44;;;5.56;100.00
60832;BME280;46665;51.558;-0.448;2023-03-14T01:53:11;98462.44;;;5.52;100.00
60832;BME280;46665;51.558;-0.448;2023-03-14T01:55:55;98475.72;;;5.48;100.00
60832;BME280;46665;51.558;-0.448;2023-03-14T01:58:42;98486.34;;;5.45;100.00
60832;BME280;46665;51.558;-0.448;2023-03-14T02:01:28;98505.00;;;5.41;100.00
60832;BME280;46665;51.558;-0.448;2023-03-14T02:04:12;98500.59;;;5.31;100.00
60832;BME280;46665;51.558;-0.448;2023-03-14T02:07:03;98520.66;;;5.25;100.00
60832;BME280;46665;51.558;-0.448;2023-03-14T02:09:50;98535.63;;;5.17;100.00
60832;BME280;46665;51.558;-0.448;2023-03-14T02:12:35;98541.28;;;5.02;100.00
60832;BME280;46665;51.558;-0.448;2023-03-14T02:15:20;98554.53;;;4.85;100.00
60832;BME280;46665;51.558;-0.448;2023-03-14T02:18:04;98544.69;;;4.75;100.00
60832;BME280;46665;51.558;-0.448;2023-03-14T02:21:00;98549.44;;;4.64;100.00
60832;BME280;46665;51.558;-0.448;2023-03-14T02:23:52;98559.59;;;4.53;100.00
60832;BME280;46665;51.558;-0.448;2023-03-14T02:29:53;98572.31;;;4.29;100.00
60832;BME280;46665;51.558;-0.448;2023-03-14T02:32:41;98576.66;;;4.25;100.00
60832;BME280;46665;51.558;-0.448;2023-03-14T02:36:14;98580.00;;;4.17;100.00
60832;BME280;46665;51.558;-0.448;2023-03-14T02:38:37;98597.88;;;4.07;100.00
60832;BME280;46665;51.558;-0.448;2023-03-14T02:41:24;98606.00;;;4.02;100.00
60832;BME280;46665;51.558;-0.448;2023-03-14T02:44:08;98609.81;;;4.01;100.00
60832;BME280;46665;51.558;-0.448;2023-03-14T02:46:52;98618.53;;;3.93;100.00
60832;BME280;46665;51.558;-0.448;2023-03-14T02:49:36;98624.47;;;3.90;100.00
60832;BME280;46665;51.558;-0.448;2023-03-14T02:52:20;98615.09;;;3.87;100.00
60832;BME280;46665;51.558;-0.448;2023-03-14T02:55:04;98633.69;;;3.84;100.00
60832;BME280;46665;51.558;-0.448;2023-03-14T02:57:49;98631.56;;;3.81;100.00
60832;BME280;46665;51.558;-0.448;2023-03-14T03:00:34;98646.59;;;3.82;100.00
60832;BME280;46665;51.558;-0.448;2023-03-14T03:03:19;98639.69;;;3.76;100.00
60832;BME280;46665;51.558;-0.448;2023-03-14T03:06:03;98660.69;;;3.74;100.00
60832;BME280;46665;51.558;-0.448;2023-03-14T03:08:48;98663.94;;;3.71;100.00
60832;BME280;46665;51.558;-0.448;2023-03-14T03:11:32;98673.09;;;3.69;100.00
60832;BME280;46665;51.558;-0.448;2023-03-14T03:14:16;98677.44;;;3.65;100.00
60832;BME280;46665;51.558;-0.448;2023-03-14T03:17:00;98683.09;;;3.64;100.00
60832;BME280;46665;51.558;-0.448;2023-03-14T03:19:44;98701.41;;;3.62;100.00
60832;BME280;46665;51.558;-0.448;2023-03-14T03:22:28;98698.22;;;3.60;100.00
60832;BME280;46665;51.558;-0.448;2023-03-14T03:25:12;98710.56;;;3.61;100.00
60832;BME280;46665;51.558;-0.448;2023-03-14T03:27:57;98707.13;;;3.55;100.00
60832;BME280;46665;51.558;-0.448;2023-03-14T03:30:41;98707.69;;;3.52;100.00
60832;BME280;46665;51.558;-0.448;2023-03-14T03:33:26;98708.00;;;3.45;100.00
60832;BME280;46665;51.558;-0.448;2023-03-14T03:36:10;98737.59;;;3.45;100.00
60832;BME280;46665;51.558;-0.448;2023-03-14T03:38:54;98732.47;;;3.44;100.00
60832;BME280;46665;51.558;-0.448;2023-03-14T03:41:38;98743.84;;;3.36;100.00
60832;BME280;46665;51.558;-0.448;2023-03-14T03:44:22;98761.59;;;3.37;100.00
60832;BME280;46665;51.558;-0.448;2023-03-14T03:47:06;98761.94;;;3.25;100.00
60832;BME280;46665;51.558;-0.448;2023-03-14T03:49:50;98771.63;;;3.21;100.00
60832;BME280;46665;51.558;-0.448;2023-03-14T03:52:34;98773.00;;;3.13;100.00
60832;BME280;46665;51.558;-0.448;2023-03-14T03:55:18;98783.25;;;3.06;100.00
60832;BME280;46665;51.558;-0.448;2023-03-14T03:58:02;98794.88;;;2.96;100.00
60832;BME280;46665;51.558;-0.448;2023-03-14T04:00:46;98796.72;;;3.01;100.00
60832;BME280;46665;51.558;-0.448;2023-03-14T04:03:29;98809.66;;;2.99;100.00
60832;BME280;46665;51.558;-0.448;2023-03-14T04:06:14;98808.03;;;2.98;100.00
60832;BME280;46665;51.558;-0.448;2023-03-14T04:08:58;98820.13;;;2.95;100.00
60832;BME280;46665;51.558;-0.448;2023-03-14T04:11:42;98830.63;;;2.92;100.00
60832;BME280;46665;51.558;-0.448;2023-03-14T04:14:26;98834.13;;;2.87;100.00
60832;BME280;46665;51.558;-0.448;2023-03-14T04:17:12;98854.28;;;2.85;100.00
60832;BME280;46665;51.558;-0.448;2023-03-14T04:19:55;98854.56;;;2.83;100.00
60832;BME280;46665;51.558;-0.448;2023-03-14T04:22:39;98855.91;;;2.80;100.00
60832;BME280;46665;51.558;-0.448;2023-03-14T04:25:23;98870.97;;;2.81;100.00
60832;BME280;46665;51.558;-0.448;2023-03-14T04:28:07;98871.78;;;2.77;100.00
60832;BME280;46665;51.558;-0.448;2023-03-14T04:30:51;98876.34;;;2.76;100.00
60832;BME280;46665;51.558;-0.448;2023-03-14T04:33:35;98890.84;;;2.75;100.00
60832;BME280;46665;51.558;-0.448;2023-03-14T04:36:20;98909.38;;;2.77;100.00
60832;BME280;46665;51.558;-0.448;2023-03-14T04:39:04;98902.41;;;2.71;100.00
60832;BME280;46665;51.558;-0.448;2023-03-14T04:41:48;98915.56;;;2.72;100.00
60832;BME280;46665;51.558;-0.448;2023-03-14T04:44:32;98917.72;;;2.65;100.00
60832;BME280;46665;51.558;-0.448;2023-03-14T04:47:16;98925.53;;;2.67;100.00
60832;BME280;46665;51.558;-0.448;2023-03-14T04:50:00;98936.25;;;2.72;100.00
60832;BME280;46665;51.558;-0.448;2023-03-14T04:52:44;98938.66;;;2.68;100.00
60832;BME280;46665;51.558;-0.448;2023-03-14T04:55:28;98945.38;;;2.66;100.00
60832;BME280;46665;51.558;-0.448;2023-03-14T04:58:12;98956.94;;;2.61;100.00
60832;BME280;46665;51.558;-0.448;2023-03-14T05:01:04;98951.84;;;2.59;100.00
60832;BME280;46665;51.558;-0.448;2023-03-14T05:03:48;98958.28;;;2.58;100.00
60832;BME280;46665;51.558;-0.448;2023-03-14T05:06:32;98971.44;;;2.55;100.00
60832;BME280;46665;51.558;-0.448;2023-03-14T05:09:17;98978.69;;;2.59;100.00
60832;BME280;46665;51.558;-0.448;2023-03-14T05:12:00;98983.53;;;2.52;100.00
60832;BME280;46665;51.558;-0.448;2023-03-14T05:14:44;98988.34;;;2.55;100.00
60832;BME280;46665;51.558;-0.448;2023-03-14T05:17:28;98991.31;;;2.59;100.00
60832;BME280;46665;51.558;-0.448;2023-03-14T05:20:12;98999.63;;;2.63;100.00
60832;BME280;46665;51.558;-0.448;2023-03-14T05:22:56;98995.91;;;2.58;100.00
60832;BME280;46665;51.558;-0.448;2023-03-14T05:25:43;99013.06;;;2.57;100.00
60832;BME280;46665;51.558;-0.448;2023-03-14T05:28:28;99011.16;;;2.53;100.00
60832;BME280;46665;51.558;-0.448;2023-03-14T05:31:12;99016.28;;;2.59;100.00
60832;BME280;46665;51.558;-0.448;2023-03-14T05:33:56;99014.41;;;2.55;100.00
60832;BME280;46665;51.558;-0.448;2023-03-14T05:36:40;99032.41;;;2.54;100.00
60832;BME280;46665;51.558;-0.448;2023-03-14T05:39:24;99035.88;;;2.55;100.00
60832;BME280;46665;51.558;-0.448;2023-03-14T05:42:08;99032.41;;;2.54;100.00
60832;BME280;46665;51.558;-0.448;2023-03-14T05:44:52;99044.75;;;2.60;100.00
60832;BME280;46665;51.558;-0.448;2023-03-14T05:47:36;99047.44;;;2.60;100.00
60832;BME280;46665;51.558;-0.448;2023-03-14T05:50:20;99051.75;;;2.62;100.00
60832;BME280;46665;51.558;-0.448;2023-03-14T05:53:04;99048.25;;;2.66;100.00
60832;BME280;46665;51.558;-0.448;2023-03-14T05:55:55;99062.50;;;2.72;100.00
60832;BME280;46665;51.558;-0.448;2023-03-14T05:58:39;99067.56;;;2.68;100.00
60832;BME280;46665;51.558;-0.448;2023-03-14T06:01:23;99079.97;;;2.74;100.00
60832;BME280;46665;51.558;-0.448;2023-03-14T06:04:07;99086.94;;;2.75;100.00
60832;BME280;46665;51.558;-0.448;2023-03-14T06:06:54;99083.97;;;2.77;100.00
60832;BME280;46665;51.558;-0.448;2023-03-14T06:09:38;99093.38;;;2.85;100.00
60832;BME280;46665;51.558;-0.448;2023-03-14T06:12:23;99117.84;;;2.93;100.00
60832;BME280;46665;51.558;-0.448;2023-03-14T06:15:08;99111.41;;;2.89;100.00
60832;BME280;46665;51.558;-0.448;2023-03-14T06:17:54;99113.78;;;2.86;100.00
60832;BME280;46665;51.558;-0.448;2023-03-14T06:20:39;99133.44;;;2.91;100.00
60832;BME280;46665;51.558;-0.448;2023-03-14T06:23:23;99138.53;;;2.98;100.00
60832;BME280;46665;51.558;-0.448;2023-03-14T06:26:08;99143.66;;;2.94;100.00
60832;BME280;46665;51.558;-0.448;2023-03-14T06:28:52;99144.72;;;2.98;100.00
60832;BME280;46665;51.558;-0.448;2023-03-14T06:31:37;99149.81;;;3.05;100.00
60832;BME280;46665;51.558;-0.448;2023-03-14T06:34:21;99157.63;;;3.07;100.00
60832;BME280;46665;51.558;-0.448;2023-03-14T06:37:05;99153.06;;;3.02;100.00
60832;BME280;46665;51.558;-0.448;2023-03-14T06:39:49;99168.09;;;3.03;100.00
60832;BME280;46665;51.558;-0.448;2023-03-14T06:42:33;99179.94;;;3.02;100.00
60832;BME280;46665;51.558;-0.448;2023-03-14T06:45:17;99182.63;;;2.97;100.00
60832;BME280;46665;51.558;-0.448;2023-03-14T06:48:01;99193.63;;;2.95;100.00
60832;BME280;46665;51.558;-0.448;2023-03-14T06:50:47;99218.88;;;2.99;100.00
60832;BME280;46665;51.558;-0.448;2023-03-14T06:53:31;99211.88;;;2.98;100.00
60832;BME280;46665;51.558;-0.448;2023-03-14T06:56:16;99227.22;;;3.08;100.00
60832;BME280;46665;51.558;-0.448;2023-03-14T06:58:59;99228.84;;;2.99;100.00
60832;BME280;46665;51.558;-0.448;2023-03-14T07:01:43;99249.00;;;3.07;100.00
60832;BME280;46665;51.558;-0.448;2023-03-14T07:04:27;99257.06;;;2.96;100.00
60832;BME280;46665;51.558;-0.448;2023-03-14T07:07:11;99264.84;;;3.08;100.00
60832;BME280;46665;51.558;-0.448;2023-03-14T07:09:55;99286.09;;;3.10;100.00
60832;BME280;46665;51.558;-0.448;2023-03-14T07:12:39;99294.41;;;3.08;100.00
60832;BME280;46665;51.558;-0.448;2023-03-14T07:15:23;99308.13;;;3.07;100.00
60832;BME280;46665;51.558;-0.448;2023-03-14T07:18:07;99311.28;;;2.93;100.00
60832;BME280;46665;51.558;-0.448;2023-03-14T07:20:50;99328.50;;;2.92;100.00
60832;BME280;46665;51.558;-0.448;2023-03-14T07:23:35;99346.16;;;2.78;100.00
60832;BME280;46665;51.558;-0.448;2023-03-14T07:26:19;99347.25;;;2.82;100.00
60832;BME280;46665;51.558;-0.448;2023-03-14T07:29:03;99364.72;;;2.79;100.00
60832;BME280;46665;51.558;-0.448;2023-03-14T07:31:47;99364.94;;;2.73;100.00
60832;BME280;46665;51.558;-0.448;2023-03-14T07:34:31;99379.72;;;2.75;100.00
60832;BME280;46665;51.558;-0.448;2023-03-14T07:37:15;99385.03;;;2.65;100.00
60832;BME280;46665;51.558;-0.448;2023-03-14T07:39:59;99392.78;;;2.56;100.00
60832;BME280;46665;51.558;-0.448;2023-03-14T07:42:43;99408.13;;;2.61;100.00
60832;BME280;46665;51.558;-0.448;2023-03-14T07:45:27;99419.13;;;2.59;100.00
60832;BME280;46665;51.558;-0.448;2023-03-14T07:48:11;99436.03;;;2.60;100.00
60832;BME280;46665;51.558;-0.448;2023-03-14T07:50:55;99433.91;;;2.62;100.00
60832;BME280;46665;51.558;-0.448;2023-03-14T07:53:40;99439.84;;;2.64;100.00
60832;BME280;46665;51.558;-0.448;2023-03-14T07:56:24;99440.88;;;2.63;100.00
60832;BME280;46665;51.558;-0.448;2023-03-14T07:59:08;99449.53;;;2.70;100.00
60832;BME280;46665;51.558;-0.448;2023-03-14T08:01:52;99475.59;;;2.70;100.00
60832;BME280;46665;51.558;-0.448;2023-03-14T08:04:36;99483.69;;;2.75;100.00
60832;BME280;46665;51.558;-0.448;2023-03-14T08:07:20;99492.31;;;2.77;100.00
60832;BME280;46665;51.558;-0.448;2023-03-14T08:10:05;99514.00;;;2.70;100.00
60832;BME280;46665;51.558;-0.448;2023-03-14T08:12:50;99513.44;;;2.68;100.00
60832;BME280;46665;51.558;-0.448;2023-03-14T08:15:34;99526.63;;;2.70;100.00
60832;BME280;46665;51.558;-0.448;2023-03-14T08:18:18;99529.03;;;2.66;100.00
60832;BME280;46665;51.558;-0.448;2023-03-14T08:21:02;99538.69;;;2.67;100.00
60832;BME280;46665;51.558;-0.448;2023-03-14T08:23:46;99554.66;;;2.79;100.00
60832;BME280;46665;51.558;-0.448;2023-03-14T08:26:30;99567.28;;;2.83;100.00
60832;BME280;46665;51.558;-0.448;2023-03-14T08:29:14;99573.84;;;2.93;100.00
60832;BME280;46665;51.558;-0.448;2023-03-14T08:31:58;99589.94;;;2.93;100.00
60832;BME280;46665;51.558;-0.448;2023-03-14T08:34:42;99612.00;;;2.95;100.00
60832;BME280;46665;51.558;-0.448;2023-03-14T08:37:26;99616.75;;;2.82;100.00
60832;BME280;46665;51.558;-0.448;2023-03-14T08:40:11;99624.03;;;2.87;100.00
60832;BME280;46665;51.558;-0.448;2023-03-14T08:42:55;99636.09;;;2.85;100.00
60832;BME280;46665;51.558;-0.448;2023-03-14T08:45:39;99649.63;;;2.95;100.00
60832;BME280;46665;51.558;-0.448;2023-03-14T08:48:23;99668.09;;;2.86;100.00
60832;BME280;46665;51.558;-0.448;2023-03-14T08:51:09;99680.72;;;2.86;100.00
60832;BME280;46665;51.558;-0.448;2023-03-14T08:53:55;99690.47;;;2.92;100.00
60832;BME280;46665;51.558;-0.448;2023-03-14T08:56:38;99703.34;;;2.90;100.00
60832;BME280;46665;51.558;-0.448;2023-03-14T08:59:23;99715.22;;;2.94;100.00
60832;BME280;46665;51.558;-0.448;2023-03-14T09:02:10;99728.44;;;2.78;100.00
60832;BME280;46665;51.558;-0.448;2023-03-14T09:04:54;99739.97;;;2.74;100.00
60832;BME280;46665;51.558;-0.448;2023-03-14T09:07:39;99755.81;;;2.75;100.00
60832;BME280;46665;51.558;-0.448;2023-03-14T09:10:23;99759.78;;;2.68;100.00
60832;BME280;46665;51.558;-0.448;2023-03-14T09:13:07;99762.59;;;2.56;100.00
60832;BME280;46665;51.558;-0.448;2023-03-14T09:15:55;99766.72;;;2.42;100.00
60832;BME280;46665;51.558;-0.448;2023-03-14T09:18:40;99771.06;;;2.48;100.00
60832;BME280;46665;51.558;-0.448;2023-03-14T09:21:24;99787.94;;;2.43;100.00
60832;BME280;46665;51.558;-0.448;2023-03-14T09:24:08;99796.00;;;2.43;100.00
60832;BME280;46665;51.558;-0.448;2023-03-14T09:26:52;99806.56;;;2.50;100.00
60832;BME280;46665;51.558;-0.448;2023-03-14T09:29:36;99819.53;;;2.58;100.00
60832;BME280;46665;51.558;-0.448;2023-03-14T09:32:20;99818.63;;;2.69;100.00
60832;BME280;46665;51.558;-0.448;2023-03-14T09:35:04;99828.50;;;2.86;100.00
60832;BME280;46665;51.558;-0.448;2023-03-14T09:37:48;99844.69;;;2.91;100.00
60832;BME280;46665;51.558;-0.448;2023-03-14T09:40:36;99848.69;;;3.10;100.00
60832;BME280;46665;51.558;-0.448;2023-03-14T09:43:22;99862.81;;;3.22;100.00
60832;BME280;46665;51.558;-0.448;2023-03-14T09:46:09;99880.03;;;3.26;100.00
60832;BME280;46665;51.558;-0.448;2023-03-14T09:48:55;99888.91;;;3.22;100.00
60832;BME280;46665;51.558;-0.448;2023-03-14T09:51:39;99885.81;;;3.35;100.00
60832;BME280;46665;51.558;-0.448;2023-03-14T09:57:18;99895.38;;;3.26;100.00
60832;BME280;46665;51.558;-0.448;2023-03-14T10:00:13;99898.81;;;3.43;100.00
60832;BME280;46665;51.558;-0.448;2023-03-14T10:03:22;99911.84;;;3.57;100.00
60832;BME280;46665;51.558;-0.448;2023-03-14T10:06:11;99925.69;;;3.65;100.00
60832;BME280;46665;51.558;-0.448;2023-03-14T10:08:56;99933.19;;;3.63;100.00
60832;BME280;46665;51.558;-0.448;2023-03-14T10:11:40;99949.63;;;3.67;100.00
60832;BME280;46665;51.558;-0.448;2023-03-14T10:14:33;99956.38;;;3.69;100.00
60832;BME280;46665;51.558;-0.448;2023-03-14T10:17:19;99969.25;;;3.62;100.00
60832;BME280;46665;51.558;-0.448;2023-03-14T10:20:04;99974.78;;;3.78;100.00
60832;BME280;46665;51.558;-0.448;2023-03-14T10:22:50;99982.31;;;3.76;100.00
60832;BME280;46665;51.558;-0.448;2023-03-14T10:25:38;99986.03;;;3.75;100.00
60832;BME280;46665;51.558;-0.448;2023-03-14T10:28:34;99997.88;;;3.74;100.00
60832;BME280;46665;51.558;-0.448;2023-03-14T10:31:25;100011.97;;;3.81;100.00
60832;BME280;46665;51.558;-0.448;2023-03-14T10:34:16;100000.75;;;3.67;100.00
60832;BME280;46665;51.558;-0.448;2023-03-14T10:37:22;100009.84;;;3.83;100.00
60832;BME280;46665;51.558;-0.448;2023-03-14T10:40:13;100013.75;;;3.97;100.00
60832;BME280;46665;51.558;-0.448;2023-03-14T10:42:58;100016.00;;;4.05;100.00
60832;BME280;46665;51.558;-0.448;2023-03-14T10:45:43;100014.47;;;4.15;100.00
60832;BME280;46665;51.558;-0.448;2023-03-14T10:48:31;100017.16;;;4.15;100.00
60832;BME280;46665;51.558;-0.448;2023-03-14T10:51:24;100040.34;;;4.16;100.00
60832;BME280;46665;51.558;-0.448;2023-03-14T10:57:00;100065.59;;;4.09;100.00
60832;BME280;46665;51.558;-0.448;2023-03-14T10:59:44;100064.34;;;3.95;100.00
60832;BME280;46665;51.558;-0.448;2023-03-14T11:02:39;100066.16;;;4.11;100.00
60832;BME280;46665;51.558;-0.448;2023-03-14T11:05:34;100074.28;;;4.17;100.00
60832;BME280;46665;51.558;-0.448;2023-03-14T11:11:32;100095.44;;;4.30;100.00
60832;BME280;46665;51.558;-0.448;2023-03-14T11:14:39;100108.19;;;4.40;100.00
60832;BME280;46665;51.558;-0.448;2023-03-14T11:17:34;100109.56;;;4.42;100.00
60832;BME280;46665;51.558;-0.448;2023-03-14T11:28:57;100137.19;;;4.82;100.00
60832;BME280;46665;51.558;-0.448;2023-03-14T11:31:43;100135.09;;;4.89;100.00
60832;BME280;46665;51.558;-0.448;2023-03-14T11:34:37;100155.88;;;4.93;100.00
60832;BME280;46665;51.558;-0.448;2023-03-14T11:37:41;100153.38;;;5.14;100.00
60832;BME280;46665;51.558;-0.448;2023-03-14T11:40:28;100150.63;;;5.41;100.00
60832;BME280;46665;51.558;-0.448;2023-03-14T11:43:20;100157.59;;;5.32;100.00
60832;BME280;46665;51.558;-0.448;2023-03-14T11:46:19;100168.47;;;5.42;100.00
60832;BME280;46665;51.558;-0.448;2023-03-14T11:52:28;100188.72;;;5.45;94.41
60832;BME280;46665;51.558;-0.448;2023-03-14T11:55:24;100183.16;;;5.61;93.43
60832;BME280;46665;51.558;-0.448;2023-03-14T11:58:28;100201.97;;;5.89;88.28
60832;BME280;46665;51.558;-0.448;2023-03-14T12:01:13;100197.66;;;5.88;90.06
60832;BME280;46665;51.558;-0.448;2023-03-14T12:07:29;100207.72;;;5.97;90.02
60832;BME280;46665;51.558;-0.448;2023-03-14T12:10:18;100227.28;;;6.20;83.53
60832;BME280;46665;51.558;-0.448;2023-03-14T12:13:03;100228.13;;;6.20;80.53
60832;BME280;46665;51.558;-0.448;2023-03-14T12:15:58;100229.28;;;6.40;76.74
60832;BME280;46665;51.558;-0.448;2023-03-14T12:18:43;100236.28;;;6.31;75.17
60832;BME280;46665;51.558;-0.448;2023-03-14T12:21:46;100224.41;;;6.37;70.98
60832;BME280;46665;51.558;-0.448;2023-03-14T12:24:33;100220.97;;;6.51;75.03
60832;BME280;46665;51.558;-0.448;2023-03-14T12:27:49;100235.84;;;6.54;70.84
60832;BME280;46665;51.558;-0.448;2023-03-14T12:30:46;100235.56;;;6.56;72.47
60832;BME280;46665;51.558;-0.448;2023-03-14T12:33:32;100231.22;;;6.49;73.27
60832;BME280;46665;51.558;-0.448;2023-03-14T12:36:47;100242.25;;;6.38;74.35
60832;BME280;46665;51.558;-0.448;2023-03-14T12:45:28;100236.66;;;6.60;67.74
60832;BME280;46665;51.558;-0.448;2023-03-14T12:48:23;100247.22;;;6.61;69.67
60832;BME280;46665;51.558;-0.448;2023-03-14T12:51:13;100245.91;;;6.69;72.06
60832;BME280;46665;51.558;-0.448;2023-03-14T13:00:21;100245.94;;;6.79;67.18
60832;BME280;46665;51.558;-0.448;2023-03-14T13:03:49;100261.63;;;6.82;67.54
60832;BME280;46665;51.558;-0.448;2023-03-14T13:09:36;100264.69;;;7.11;67.96
60832;BME280;46665;51.558;-0.448;2023-03-14T13:13:23;100266.88;;;7.20;65.43
60832;BME280;46665;51.558;-0.448;2023-03-14T13:15:44;100272.03;;;7.42;65.97
60832;BME280;46665;51.558;-0.448;2023-03-14T13:18:36;100273.41;;;7.54;64.64
60832;BME280;46665;51.558;-0.448;2023-03-14T13:21:27;100266.94;;;7.66;64.35
60832;BME280;46665;51.558;-0.448;2023-03-14T13:24:22;100271.78;;;7.79;62.18
60832;BME280;46665;51.558;-0.448;2023-03-14T13:27:19;100283.44;;;7.85;57.49
60832;BME280;46665;51.558;-0.448;2023-03-14T13:33:12;100289.13;;;7.93;60.13
60832;BME280;46665;51.558;-0.448;2023-03-14T13:35:59;100282.06;;;7.77;60.61
60832;BME280;46665;51.558;-0.448;2023-03-14T13:38:43;100284.78;;;8.02;60.36
60832;BME280;46665;51.558;-0.448;2023-03-14T13:41:28;100298.88;;;8.04;58.75
60832;BME280;46665;51.558;-0.448;2023-03-14T13:44:18;100298.31;;;8.18;58.39
60832;BME280;46665;51.558;-0.448;2023-03-14T13:47:14;100300.47;;;8.26;58.48
60832;BME280;46665;51.558;-0.448;2023-03-14T13:49:59;100309.41;;;8.37;58.62
60832;BME280;46665;51.558;-0.448;2023-03-14T13:52:43;100313.75;;;8.12;58.97
60832;BME280;46665;51.558;-0.448;2023-03-14T13:55:29;100311.88;;;8.02;61.79
60832;BME280;46665;51.558;-0.448;2023-03-14T13:58:33;100321.88;;;8.12;62.54
60832;BME280;46665;51.558;-0.448;2023-03-14T14:01:34;100332.47;;;8.19;59.13
60832;BME280;46665;51.558;-0.448;2023-03-14T14:04:21;100329.72;;;8.34;55.21
60832;BME280;46665;51.558;-0.448;2023-03-14T14:07:08;100332.44;;;8.34;51.01
60832;BME280;46665;51.558;-0.448;2023-03-14T14:09:53;100346.53;;;8.57;49.25
60832;BME280;46665;51.558;-0.448;2023-03-14T14:13:01;100348.97;;;8.53;50.03
60832;BME280;46665;51.558;-0.448;2023-03-14T14:15:49;100356.81;;;8.65;50.85
60832;BME280;46665;51.558;-0.448;2023-03-14T14:18:35;100357.38;;;8.62;50.51
60832;BME280;46665;51.558;-0.448;2023-03-14T14:21:19;100363.63;;;8.47;50.78
60832;BME280;46665;51.558;-0.448;2023-03-14T14:24:03;100361.16;;;8.35;52.84
60832;BME280;46665;51.558;-0.448;2023-03-14T14:26:53;100368.50;;;8.30;50.71
60832;BME280;46665;51.558;-0.448;2023-03-14T14:29:37;100369.31;;;8.40;50.87
60832;BME280;46665;51.558;-0.448;2023-03-14T14:32:21;100364.97;;;8.60;52.66
60832;BME280;46665;51.558;-0.448;2023-03-14T14:35:07;100370.91;;;8.72;54.03
60832;BME280;46665;51.558;-0.448;2023-03-14T14:37:53;100374.72;;;8.66;51.35
60832;BME280;46665;51.558;-0.448;2023-03-14T14:40:43;100384.47;;;8.67;52.04
60832;BME280;46665;51.558;-0.448;2023-03-14T14:43:30;100378.75;;;8.84;52.78
60832;BME280;46665;51.558;-0.448;2023-03-14T14:46:20;100385.56;;;8.76;51.78
60832;BME280;46665;51.558;-0.448;2023-03-14T14:49:09;100383.88;;;8.85;51.18
60832;BME280;46665;51.558;-0.448;2023-03-14T14:52:02;100392.00;;;8.90;48.79
60832;BME280;46665;51.558;-0.448;2023-03-14T14:54:52;100386.59;;;8.90;49.12
60832;BME280;46665;51.558;-0.448;2023-03-14T14:57:38;100394.19;;;8.88;48.15
60832;BME280;46665;51.558;-0.448;2023-03-14T15:00:26;100405.91;;;8.79;47.76
60832;BME280;46665;51.558;-0.448;2023-03-14T15:03:14;100395.31;;;8.72;50.17
60832;BME280;46665;51.558;-0.448;2023-03-14T15:05:59;100399.94;;;8.77;49.26
60832;BME280;46665;51.558;-0.448;2023-03-14T15:08:44;100398.00;;;8.82;48.54
60832;BME280;46665;51.558;-0.448;2023-03-14T15:11:29;100407.72;;;8.94;49.47
60832;BME280;46665;51.558;-0.448;2023-03-14T15:14:13;100406.34;;;9.11;51.11
60832;BME280;46665;51.558;-0.448;2023-03-14T15:16:58;100416.09;;;9.13;48.85